sensor_id;sensor_type;location;lat;lon;timestamp;pressure;altitude;pressure_sealevel;temperature;humidity
74437;BME280;62868;52.360;30.424;2022-09-01T00:03:26;1026.2;;;11.9;55.5
74437;BME280;62868;52.360;30.424;2022-09-01T00:08:36;1026.2;;;11.9;55.6
74437;BME280;62868;52.360;30.424;2022-09-01T00:12:58;1026.3;;;11.8;55.8
74437;BME280;62868;52.360;30.424;2022-09-01T00:17:58;1026.2;;;11.9;55.8
74437;BME280;62868;52.360;30.424;2022-09-01T00:23:36;1026.2;;;11.9;55.7
74437;BME280;62868;52.360;30.424;2022-09-01T00:28:16;1026.3;;;11.9;55.7
74437;BME280;62868;52.360;30.424;2022-09-01T00:33:35;1026.3;;;11.9;55.8
74437;BME280;62868;52.360;30.424;2022-09-01T00:38:16;1026.4;;;11.9;55.9
74437;BME280;62868;52.360;30.424;2022-09-01T00:43:37;1026.4;;;11.8;55.9
74437;BME280;62868;52.360;30.424;2022-09-01T00:48:36;1026.4;;;11.7;56.1
74437;BME280;62868;52.360;30.424;2022-09-01T00:53:16;1026.4;;;11.6;56.3
74437;BME280;62868;52.360;30.424;2022-09-01T00:58:14;1026.4;;;11.6;56.4
74437;BME280;62868;52.360;30.424;2022-09-01T01:03:05;1026.4;;;11.6;56.4
74437;BME280;62868;52.360;30.424;2022-09-01T01:08:00;1026.3;;;11.7;56.2
74437;BME280;62868;52.360;30.424;2022-09-01T01:13:20;1026.3;;;11.6;56.3
74437;BME280;62868;52.360;30.424;2022-09-01T01:18:20;1026.3;;;11.6;56.3
74437;BME280;62868;52.360;30.424;2022-09-01T01:23:40;1026.2;;;11.6;56.4
74437;BME280;62868;52.360;30.424;2022-09-01T01:28:40;1026.3;;;11.6;56.4
74437;BME280;62868;52.360;30.424;2022-09-01T01:33:19;1026.3;;;11.6;56.5
74437;BME280;62868;52.360;30.424;2022-09-01T01:38:38;1026.3;;;11.6;56.7
74437;BME280;62868;52.360;30.424;2022-09-01T01:43:39;1026.3;;;11.6;56.7
74437;BME280;62868;52.360;30.424;2022-09-01T01:48:24;1026.3;;;11.6;56.7
74437;BME280;62868;52.360;30.424;2022-09-01T01:52:59;1026.3;;;11.7;56.6
74437;BME280;62868;52.360;30.424;2022-09-01T01:58:08;1026.2;;;11.7;56.5
74437;BME280;62868;52.360;30.424;2022-09-01T02:03:37;1026.2;;;11.8;56.5
74437;BME280;62868;52.360;30.424;2022-09-01T02:08:26;1026.2;;;11.8;56.7
74437;BME280;62868;52.360;30.424;2022-09-01T02:13:19;1026.2;;;11.8;56.8
74437;BME280;62868;52.360;30.424;2022-09-01T02:18:18;1026.2;;;11.7;56.8
74437;BME280;62868;52.360;30.424;2022-09-01T02:23:17;1026.2;;;11.7;56.9
74437;BME280;62868;52.360;30.424;2022-09-01T02:28:27;1026.1;;;11.7;57.1
74437;BME280;62868;52.360;30.424;2022-09-01T02:33:27;1026.2;;;11.7;57
74437;BME280;62868;52.360;30.424;2022-09-01T02:38:39;1026.2;;;11.6;57
74437;BME280;62868;52.360;30.424;2022-09-01T02:42:59;1026.1;;;11.6;57.1
74437;BME280;62868;52.360;30.424;2022-09-01T02:47:59;1026.1;;;11.5;57.2
74437;BME280;62868;52.360;30.424;2022-09-01T02:53:41;1026.1;;;11.5;57.2
74437;BME280;62868;52.360;30.424;2022-09-01T02:58:31;1026.2;;;11.4;57.4
74437;BME280;62868;52.360;30.424;2022-09-01T03:03:37;1026.2;;;11.3;57.4
74437;BME280;62868;52.360;30.424;2022-09-01T03:08:09;1026.2;;;11.3;57.5
74437;BME280;62868;52.360;30.424;2022-09-01T03:13:31;1026.3;;;11.3;57.5
74437;BME280;62868;52.360;30.424;2022-09-01T03:18:41;1026.3;;;11.3;57.4
74437;BME280;62868;52.360;30.424;2022-09-01T03:23:29;1026.2;;;11.4;57.3
74437;BME280;62868;52.360;30.424;2022-09-01T03:28:17;1026.3;;;11.6;57.1
74437;BME280;62868;52.360;30.424;2022-09-01T03:33:05;1026.3;;;11.8;56.9
74437;BME280;62868;52.360;30.424;2022-09-01T03:37:59;1026.3;;;11.9;56.8
74437;BME280;62868;52.360;30.424;2022-09-01T03:42:59;1026.4;;;12;56.8
74437;BME280;62868;52.360;30.424;2022-09-01T03:48:21;1026.4;;;12.3;56.6
74437;BME280;62868;52.360;30.424;2022-09-01T03:53:39;1026.5;;;12.5;56.4
74437;BME280;62868;52.360;30.424;2022-09-01T03:58:25;1026.4;;;13.6;54.8
74437;BME280;62868;52.360;30.424;2022-09-01T04:03:17;1026.4;;;15.1;52.4
74437;BME280;62868;52.360;30.424;2022-09-01T04:08:17;1026.4;;;14.5;53.8
74437;BME280;62868;52.360;30.424;2022-09-01T04:13:29;1026.5;;;14.1;54.4
74437;BME280;62868;52.360;30.424;2022-09-01T04:18:41;1026.5;;;14.1;54.7
74437;BME280;62868;52.360;30.424;2022-09-01T04:23:07;1026.5;;;14.7;54.2
74437;BME280;62868;52.360;30.424;2022-09-01T04:28:21;1026.5;;;15.3;53.6
74437;BME280;62868;52.360;30.424;2022-09-01T04:33:09;1026.4;;;15.8;53.1
74437;BME280;62868;52.360;30.424;2022-09-01T04:38:27;1026.4;;;16.3;52.7
74437;BME280;62868;52.360;30.424;2022-09-01T04:43:21;1026.4;;;16.6;52.2
74437;BME280;62868;52.360;30.424;2022-09-01T04:48:31;1026.4;;;17;51.8
74437;BME280;62868;52.360;30.424;2022-09-01T04:53:27;1026.4;;;17.4;51.2
74437;BME280;62868;52.360;30.424;2022-09-01T04:58:27;1026.5;;;17.6;50.7
74437;BME280;62868;52.360;30.424;2022-09-01T05:03:29;1026.4;;;17.8;50.4
74437;BME280;62868;52.360;30.424;2022-09-01T05:08:41;1026.4;;;17.9;50.1
74437;BME280;62868;52.360;30.424;2022-09-01T05:12:59;1026.4;;;18.1;49.8
74437;BME280;62868;52.360;30.424;2022-09-01T05:18:07;1026.3;;;18.2;49.6
74437;BME280;62868;52.360;30.424;2022-09-01T05:23:21;1026.3;;;18.5;49.3
74437;BME280;62868;52.360;30.424;2022-09-01T05:28:39;1026.2;;;18.7;49.1
74437;BME280;62868;52.360;30.424;2022-09-01T05:33:37;1026.2;;;18.8;48.8
74437;BME280;62868;52.360;30.424;2022-09-01T05:38:17;1026.3;;;18.7;48.7
74437;BME280;62868;52.360;30.424;2022-09-01T05:43:33;1026.3;;;18.7;48.5
74437;BME280;62868;52.360;30.424;2022-09-01T05:48:39;1026.3;;;19;48.1
74437;BME280;62868;52.360;30.424;2022-09-01T05:53:17;1026.3;;;19.3;47.8
74437;BME280;62868;52.360;30.424;2022-09-01T05:58:15;1026.3;;;19.7;47.5
74437;BME280;62868;52.360;30.424;2022-09-01T06:03:05;1026.4;;;19.8;47.4
74437;BME280;62868;52.360;30.424;2022-09-01T06:08:19;1026.4;;;19.8;47.2
74437;BME280;62868;52.360;30.424;2022-09-01T06:13:09;1026.4;;;19.9;46.9
74437;BME280;62868;52.360;30.424;2022-09-01T06:18:19;1026.4;;;20.3;46.5
74437;BME280;62868;52.360;30.424;2022-09-01T06:23:40;1026.4;;;20.6;46
74437;BME280;62868;52.360;30.424;2022-09-01T06:28:25;1026.4;;;21;45.5
74437;BME280;62868;52.360;30.424;2022-09-01T06:33:15;1026.4;;;21.3;45.1
74437;BME280;62868;52.360;30.424;2022-09-01T06:37:59;1026.5;;;21.5;44.8
74437;BME280;62868;52.360;30.424;2022-09-01T06:43:25;1026.5;;;21.5;44.5
74437;BME280;62868;52.360;30.424;2022-09-01T06:48:27;1026.5;;;21.6;44.1
74437;BME280;62868;52.360;30.424;2022-09-01T06:53:31;1026.5;;;22.2;43.5
74437;BME280;62868;52.360;30.424;2022-09-01T06:57:59;1026.6;;;22.2;43.2
74437;BME280;62868;52.360;30.424;2022-09-01T07:03:05;1026.6;;;22.3;42.8
74437;BME280;62868;52.360;30.424;2022-09-01T07:08:27;1026.6;;;22.8;42.3
74437;BME280;62868;52.360;30.424;2022-09-01T07:13:21;1026.6;;;23.1;41.9
74437;BME280;62868;52.360;30.424;2022-09-01T07:18:33;1026.6;;;23.5;41.3
74437;BME280;62868;52.360;30.424;2022-09-01T07:23:27;1026.6;;;23.6;40.9
74437;BME280;62868;52.360;30.424;2022-09-01T07:28:25;1026.6;;;23.8;40.5
74437;BME280;62868;52.360;30.424;2022-09-01T07:33:27;1026.6;;;24.1;40.1
74437;BME280;62868;52.360;30.424;2022-09-01T07:38:41;1026.6;;;24.5;39.6
74437;BME280;62868;52.360;30.424;2022-09-01T07:42:59;1026.6;;;24.4;39.3
74437;BME280;62868;52.360;30.424;2022-09-01T07:47:59;1026.6;;;24.4;39
74437;BME280;62868;52.360;30.424;2022-09-01T07:53:24;1026.6;;;24.6;38.6
74437;BME280;62868;52.360;30.424;2022-09-01T07:58:43;1026.6;;;24.8;38.2
74437;BME280;62868;52.360;30.424;2022-09-01T08:03:31;1026.5;;;24.9;37.9
74437;BME280;62868;52.360;30.424;2022-09-01T08:08:41;1026.5;;;24.8;37.8
74437;BME280;62868;52.360;30.424;2022-09-01T08:13:21;1026.5;;;25;37.4
74437;BME280;62868;52.360;30.424;2022-09-01T08:18:31;1026.5;;;25.4;37
74437;BME280;62868;52.360;30.424;2022-09-01T08:23:43;1026.5;;;25.7;36.7
74437;BME280;62868;52.360;30.424;2022-09-01T08:28:17;1026.4;;;25.8;36.4
74437;BME280;62868;52.360;30.424;2022-09-01T08:32:59;1026.4;;;26;36.2
74437;BME280;62868;52.360;30.424;2022-09-01T08:37:59;1026.4;;;26;35.9
74437;BME280;62868;52.360;30.424;2022-09-01T08:48:17;1026.3;;;26.1;35.3
74437;BME280;62868;52.360;30.424;2022-09-01T08:53:32;1026.3;;;25.7;35
74437;BME280;62868;52.360;30.424;2022-09-01T08:58:41;1026.2;;;25.2;35
74437;BME280;62868;52.360;30.424;2022-09-01T09:14:04;1026.3;;;24.9;34.9
74437;BME280;62868;52.360;30.424;2022-09-01T09:18:45;1026.3;;;25.2;34.4
74437;BME280;62868;52.360;30.424;2022-09-01T09:23:44;1026.3;;;25;34.5
74437;BME280;62868;52.360;30.424;2022-09-01T09:28:09;1026.4;;;24.8;34.8
74437;BME280;62868;52.360;30.424;2022-09-01T09:33:00;1026.3;;;25.5;34
74437;BME280;62868;52.360;30.424;2022-09-01T09:38:43;1026.4;;;25.4;34.1
74437;BME280;62868;52.360;30.424;2022-09-01T09:43:32;1026.4;;;25.2;34.1
74437;BME280;62868;52.360;30.424;2022-09-01T09:48:27;1026.5;;;24.8;34.3
74437;BME280;62868;52.360;30.424;2022-09-01T09:53:33;1026.4;;;24.6;34.3
74437;BME280;62868;52.360;30.424;2022-09-01T09:58:37;1026.5;;;24.4;34.4
74437;BME280;62868;52.360;30.424;2022-09-01T10:03:17;1026.5;;;24.9;33.9
74437;BME280;62868;52.360;30.424;2022-09-01T10:08:40;1026.5;;;25.7;33.2
74437;BME280;62868;52.360;30.424;2022-09-01T10:13:43;1026.5;;;25.8;33.1
74437;BME280;62868;52.360;30.424;2022-09-01T10:18:11;1026.4;;;25.4;33.4
74437;BME280;62868;52.360;30.424;2022-09-01T10:22:59;1026.5;;;25.4;33.4
74437;BME280;62868;52.360;30.424;2022-09-01T10:28:46;1026.5;;;26;32.6
74437;BME280;62868;52.360;30.424;2022-09-01T10:33:31;1026.5;;;26.6;32.1
74437;BME280;62868;52.360;30.424;2022-09-01T10:38:43;1026.5;;;26.8;31.9
74437;BME280;62868;52.360;30.424;2022-09-01T10:48:33;1026.5;;;26.7;31.8
74437;BME280;62868;52.360;30.424;2022-09-01T10:53:46;1026.5;;;27.1;31.3
74437;BME280;62868;52.360;30.424;2022-09-01T10:58:42;1026.5;;;26.5;31.7
74437;BME280;62868;52.360;30.424;2022-09-01T11:03:34;1026.6;;;26.1;31.9
74437;BME280;62868;52.360;30.424;2022-09-01T11:07:59;1026.6;;;25.7;31.9
74437;BME280;62868;52.360;30.424;2022-09-01T11:13:43;1026.6;;;25.6;31.8
74437;BME280;62868;52.360;30.424;2022-09-01T11:17:59;1026.6;;;25.5;31.8
74437;BME280;62868;52.360;30.424;2022-09-01T11:23:25;1026.6;;;25.3;32.1
74437;BME280;62868;52.360;30.424;2022-09-01T11:28:34;1026.6;;;25.2;32.2
74437;BME280;62868;52.360;30.424;2022-09-01T11:34:01;1026.6;;;24.8;32.4
74437;BME280;62868;52.360;30.424;2022-09-01T11:38:09;1026.6;;;24.9;32.2
74437;BME280;62868;52.360;30.424;2022-09-01T11:43:41;1026.6;;;24.9;32.3
74437;BME280;62868;52.360;30.424;2022-09-01T11:48:45;1026.6;;;25;32.1
74437;BME280;62868;52.360;30.424;2022-09-01T11:53:43;1026.5;;;25.4;31.6
74437;BME280;62868;52.360;30.424;2022-09-01T11:58:10;1026.6;;;25.6;31.4
74437;BME280;62868;52.360;30.424;2022-09-01T12:02:59;1026.5;;;25.2;31.8
74437;BME280;62868;52.360;30.424;2022-09-01T12:08:49;1026.5;;;24.9;32.1
74437;BME280;62868;52.360;30.424;2022-09-01T12:13:33;1026.5;;;24.2;32.4
74437;BME280;62868;52.360;30.424;2022-09-01T12:18:26;1026.5;;;23.8;32.5
74437;BME280;62868;52.360;30.424;2022-09-01T12:23:34;1026.4;;;23.7;32.5
74437;BME280;62868;52.360;30.424;2022-09-01T12:28:29;1026.3;;;23.7;32.5
74437;BME280;62868;52.360;30.424;2022-09-01T12:33:29;1026.3;;;24;32.3
74437;BME280;62868;52.360;30.424;2022-09-01T12:38:33;1026.3;;;24.2;32.2
74437;BME280;62868;52.360;30.424;2022-09-01T12:43:46;1026.3;;;24.3;32.2
74437;BME280;62868;52.360;30.424;2022-09-01T12:48:40;1026.2;;;24.4;32.2
74437;BME280;62868;52.360;30.424;2022-09-01T12:52:59;1026.2;;;24.5;32.2
74437;BME280;62868;52.360;30.424;2022-09-01T12:58:11;1026.2;;;24.6;32.1
74437;BME280;62868;52.360;30.424;2022-09-01T13:04:04;1026.2;;;24.2;32.4
74437;BME280;62868;52.360;30.424;2022-09-01T13:08:47;1026.2;;;23.9;32.4
74437;BME280;62868;52.360;30.424;2022-09-01T13:13:25;1026.2;;;23.9;32.2
74437;BME280;62868;52.360;30.424;2022-09-01T13:18:43;1026.2;;;24.2;32
74437;BME280;62868;52.360;30.424;2022-09-01T13:23:35;1026.2;;;24.2;32
74437;BME280;62868;52.360;30.424;2022-09-01T13:28:19;1026.1;;;24.3;31.9
74437;BME280;62868;52.360;30.424;2022-09-01T13:32:59;1026.1;;;24.5;31.9
74437;BME280;62868;52.360;30.424;2022-09-01T13:37:59;1026;;;24.8;31.7
74437;BME280;62868;52.360;30.424;2022-09-01T13:43:21;1026;;;24.6;31.7
74437;BME280;62868;52.360;30.424;2022-09-01T13:48:09;1026.1;;;24;32.1
74437;BME280;62868;52.360;30.424;2022-09-01T13:53:23;1026.1;;;23.3;32.6
74437;BME280;62868;52.360;30.424;2022-09-01T13:58:43;1026.2;;;22.9;32.8
74437;BME280;62868;52.360;30.424;2022-09-01T14:03:27;1026.2;;;22.6;33
74437;BME280;62868;52.360;30.424;2022-09-01T14:08:20;1026.3;;;22.5;33.1
74437;BME280;62868;52.360;30.424;2022-09-01T14:13:10;1026.3;;;22.3;33.4
74437;BME280;62868;52.360;30.424;2022-09-01T14:18:31;1026.4;;;22;33.5
74437;BME280;62868;52.360;30.424;2022-09-01T14:23:45;1026.5;;;21.7;33.8
74437;BME280;62868;52.360;30.424;2022-09-01T14:28:21;1026.5;;;21.4;34.1
74437;BME280;62868;52.360;30.424;2022-09-01T14:32:59;1026.5;;;21.2;34.2
74437;BME280;62868;52.360;30.424;2022-09-01T14:38:09;1026.5;;;21;34.3
74437;BME280;62868;52.360;30.424;2022-09-01T14:43:33;1026.5;;;20.8;34.3
74437;BME280;62868;52.360;30.424;2022-09-01T14:48:11;1026.6;;;20.7;34.4
74437;BME280;62868;52.360;30.424;2022-09-01T14:53:34;1026.6;;;20.6;34.4
74437;BME280;62868;52.360;30.424;2022-09-01T14:58:31;1026.6;;;20.7;34.5
74437;BME280;62868;52.360;30.424;2022-09-01T15:03:27;1026.5;;;20.6;34.7
74437;BME280;62868;52.360;30.424;2022-09-01T15:08:31;1026.6;;;20.3;35
74437;BME280;62868;52.360;30.424;2022-09-01T15:13:45;1026.5;;;20.1;35.3
74437;BME280;62868;52.360;30.424;2022-09-01T15:18:09;1026.5;;;20;35.5
74437;BME280;62868;52.360;30.424;2022-09-01T15:22:59;1026.5;;;19.7;35.8
74437;BME280;62868;52.360;30.424;2022-09-01T15:27:59;1026.6;;;19.6;36
74437;BME280;62868;52.360;30.424;2022-09-01T15:33:39;1026.5;;;19.4;36.3
74437;BME280;62868;52.360;30.424;2022-09-01T15:38:43;1026.6;;;19.4;36.5
74437;BME280;62868;52.360;30.424;2022-09-01T15:42:59;1026.6;;;19.4;36.6
74437;BME280;62868;52.360;30.424;2022-09-01T15:48:43;1026.6;;;19.4;36.7
74437;BME280;62868;52.360;30.424;2022-09-01T15:53:33;1026.6;;;19.3;36.8
74437;BME280;62868;52.360;30.424;2022-09-01T15:58:21;1026.7;;;19.1;37.1
74437;BME280;62868;52.360;30.424;2022-09-01T16:03:15;1026.7;;;18.9;37.4
74437;BME280;62868;52.360;30.424;2022-09-01T16:08:17;1026.7;;;18.7;37.7
74437;BME280;62868;52.360;30.424;2022-09-01T16:12:57;1026.7;;;18.5;38.1
74437;BME280;62868;52.360;30.424;2022-09-01T16:23:22;1026.8;;;18.2;38.9
74437;BME280;62868;52.360;30.424;2022-09-01T16:28:44;1026.8;;;18.1;38.9
74437;BME280;62868;52.360;30.424;2022-09-01T16:33:27;1026.9;;;17.9;39.2
74437;BME280;62868;52.360;30.424;2022-09-01T16:39:04;1027;;;17.9;39.6
74437;BME280;62868;52.360;30.424;2022-09-01T16:49:00;1027.1;;;17.7;40.3
74437;BME280;62868;52.360;30.424;2022-09-01T16:53:47;1027.1;;;17.5;40.6
74437;BME280;62868;52.360;30.424;2022-09-01T16:58:47;1027.2;;;17.4;40.8
74437;BME280;62868;52.360;30.424;2022-09-01T17:03:00;1027.3;;;17.2;41.1
74437;BME280;62868;52.360;30.424;2022-09-01T17:08:00;1027.3;;;17.1;41.3
74437;BME280;62868;52.360;30.424;2022-09-01T17:13:44;1027.4;;;16.9;41.7
74437;BME280;62868;52.360;30.424;2022-09-01T17:19:04;1027.4;;;16.6;42.1
74437;BME280;62868;52.360;30.424;2022-09-01T17:23:30;1027.4;;;16.4;42.4
74437;BME280;62868;52.360;30.424;2022-09-01T17:28:21;1027.5;;;16.2;42.7
74437;BME280;62868;52.360;30.424;2022-09-01T17:33:31;1027.5;;;16;43
74437;BME280;62868;52.360;30.424;2022-09-01T17:38:25;1027.5;;;15.8;43.2
74437;BME280;62868;52.360;30.424;2022-09-01T17:43:00;1027.5;;;15.7;43.5
74437;BME280;62868;52.360;30.424;2022-09-01T17:48:52;1027.6;;;15.5;43.6
74437;BME280;62868;52.360;30.424;2022-09-01T17:53:12;1027.6;;;15.3;44
74437;BME280;62868;52.360;30.424;2022-09-01T17:57:59;1027.6;;;15.1;44.3
74437;BME280;62868;52.360;30.424;2022-09-01T18:04:21;1027.6;;;15;44.6
74437;BME280;62868;52.360;30.424;2022-09-01T18:08:35;1027.7;;;14.9;44.8
74437;BME280;62868;52.360;30.424;2022-09-01T18:13:43;1027.7;;;14.7;45.1
74437;BME280;62868;52.360;30.424;2022-09-01T18:18:26;1027.8;;;14.6;45.2
74437;BME280;62868;52.360;30.424;2022-09-01T18:23:30;1027.8;;;14.5;45.4
74437;BME280;62868;52.360;30.424;2022-09-01T18:28:41;1027.8;;;14.4;45.7
74437;BME280;62868;52.360;30.424;2022-09-01T18:32:59;1027.8;;;14.2;46
74437;BME280;62868;52.360;30.424;2022-09-01T18:38:33;1027.9;;;14.1;46.2
74437;BME280;62868;52.360;30.424;2022-09-01T18:43:13;1027.9;;;14;46.4
74437;BME280;62868;52.360;30.424;2022-09-01T18:53:28;1028;;;13.8;46.8
74437;BME280;62868;52.360;30.424;2022-09-01T19:03:59;1028.1;;;13.7;47.2
74437;BME280;62868;52.360;30.424;2022-09-01T19:09:17;1028.1;;;13.6;47.4
74437;BME280;62868;52.360;30.424;2022-09-01T19:18:52;1028.2;;;13.4;47.9
74437;BME280;62868;52.360;30.424;2022-09-01T19:23:46;1028.2;;;13.3;48.1
74437;BME280;62868;52.360;30.424;2022-09-01T19:28:44;1028.3;;;13.2;48.3
74437;BME280;62868;52.360;30.424;2022-09-01T19:33:05;1028.3;;;13.1;48.6
74437;BME280;62868;52.360;30.424;2022-09-01T19:37:57;1028.4;;;13.1;48.7
74437;BME280;62868;52.360;30.424;2022-09-01T19:43:43;1028.4;;;13;48.8
74437;BME280;62868;52.360;30.424;2022-09-01T19:48:20;1028.4;;;13;49
74437;BME280;62868;52.360;30.424;2022-09-01T19:53:19;1028.4;;;12.9;49.3
74437;BME280;62868;52.360;30.424;2022-09-01T19:58:34;1028.5;;;12.9;49.4
74437;BME280;62868;52.360;30.424;2022-09-01T20:03:33;1028.5;;;12.8;49.6
74437;BME280;62868;52.360;30.424;2022-09-01T20:08:21;1028.5;;;12.7;49.8
74437;BME280;62868;52.360;30.424;2022-09-01T20:18:45;1028.6;;;12.6;50.3
74437;BME280;62868;52.360;30.424;2022-09-01T20:23:31;1028.7;;;12.5;50.5
74437;BME280;62868;52.360;30.424;2022-09-01T20:28:11;1028.6;;;12.5;50.6
74437;BME280;62868;52.360;30.424;2022-09-01T20:33:43;1028.7;;;12.4;50.8
74437;BME280;62868;52.360;30.424;2022-09-01T20:38:31;1028.8;;;12.3;51
74437;BME280;62868;52.360;30.424;2022-09-01T20:43:41;1028.8;;;12.2;51.2
74437;BME280;62868;52.360;30.424;2022-09-01T20:48:23;1028.8;;;12.1;51.4
74437;BME280;62868;52.360;30.424;2022-09-01T20:53:48;1028.8;;;12.1;51.6
74437;BME280;62868;52.360;30.424;2022-09-01T20:58:35;1028.9;;;12;51.9
74437;BME280;62868;52.360;30.424;2022-09-01T21:02:59;1028.8;;;12;52
74437;BME280;62868;52.360;30.424;2022-09-01T21:08:33;1028.8;;;11.9;52.3
74437;BME280;62868;52.360;30.424;2022-09-01T21:13:15;1028.8;;;11.9;52.4
74437;BME280;62868;52.360;30.424;2022-09-01T21:18:43;1028.8;;;11.8;52.6
74437;BME280;62868;52.360;30.424;2022-09-01T21:23:07;1028.8;;;11.8;52.8
74437;BME280;62868;52.360;30.424;2022-09-01T21:28:21;1028.8;;;11.7;52.9
74437;BME280;62868;52.360;30.424;2022-09-01T21:33:41;1028.9;;;11.6;53.2
74437;BME280;62868;52.360;30.424;2022-09-01T21:38:29;1028.9;;;11.6;53.2
74437;BME280;62868;52.360;30.424;2022-09-01T21:42:58;1028.9;;;11.5;53.5
74437;BME280;62868;52.360;30.424;2022-09-01T21:48:31;1028.9;;;11.4;53.6
74437;BME280;62868;52.360;30.424;2022-09-01T21:53:27;1029;;;11.3;53.9
74437;BME280;62868;52.360;30.424;2022-09-01T21:58:43;1029;;;11.2;54.1
74437;BME280;62868;52.360;30.424;2022-09-01T22:02:57;1029;;;11.2;54.1
74437;BME280;62868;52.360;30.424;2022-09-01T22:08:19;1029;;;11.2;54.3
74437;BME280;62868;52.360;30.424;2022-09-01T22:12:57;1029;;;11.2;54.5
74437;BME280;62868;52.360;30.424;2022-09-01T22:18:29;1029;;;11.1;54.6
74437;BME280;62868;52.360;30.424;2022-09-01T22:23:08;1029;;;11.1;54.6
74437;BME280;62868;52.360;30.424;2022-09-01T22:28:27;1029;;;11;54.8
74437;BME280;62868;52.360;30.424;2022-09-01T22:33:39;1029;;;10.9;55
74437;BME280;62868;52.360;30.424;2022-09-01T22:38:27;1029.1;;;10.8;55.1
74437;BME280;62868;52.360;30.424;2022-09-01T22:43:26;1029.1;;;10.7;55.3
74437;BME280;62868;52.360;30.424;2022-09-01T22:48:37;1029.1;;;10.6;55.5
74437;BME280;62868;52.360;30.424;2022-09-01T22:53:10;1029.1;;;10.5;55.7
74437;BME280;62868;52.360;30.424;2022-09-01T22:58:07;1029;;;10.5;55.8
74437;BME280;62868;52.360;30.424;2022-09-01T23:03:15;1029.1;;;10.4;55.9
74437;BME280;62868;52.360;30.424;2022-09-01T23:08:36;1029.1;;;10.4;56
74437;BME280;62868;52.360;30.424;2022-09-01T23:13:37;1029.1;;;10.3;56.1
74437;BME280;62868;52.360;30.424;2022-09-01T23:18:17;1029.1;;;10.3;56.3
74437;BME280;62868;52.360;30.424;2022-09-01T23:23:35;1029.2;;;10.3;56.3
74437;BME280;62868;52.360;30.424;2022-09-01T23:28:29;1029.2;;;10.2;56.5
74437;BME280;62868;52.360;30.424;2022-09-01T23:33:05;1029.3;;;10.1;56.7
74437;BME280;62868;52.360;30.424;2022-09-01T23:38:15;1029.3;;;10.1;56.8
74437;BME280;62868;52.360;30.424;2022-09-01T23:42:57;1029.3;;;10;56.9
74437;BME280;62868;52.360;30.424;2022-09-01T23:47:57;1029.3;;;10;56.9
74437;BME280;62868;52.360;30.424;2022-09-01T23:53:05;1029.3;;;9.9;57
74437;BME280;62868;52.360;30.424;2022-09-01T23:58:20;1029.3;;;9.9;56.9
